sensor_id;sensor_type;location;lat;lon;timestamp;P1;durP1;ratioP1;P2;durP2;ratioP2
16460;SDS011;8341;42.048;24.650;2022-07-29T00:01:40;7.47;;;6.00;;
16460;SDS011;8341;42.048;24.650;2022-07-29T00:04:07;6.80;;;6.20;;
16460;SDS011;8341;42.048;24.650;2022-07-29T00:06:34;6.38;;;5.75;;
16460;SDS011;8341;42.048;24.650;2022-07-29T00:09:00;7.50;;;6.78;;
16460;SDS011;8341;42.048;24.650;2022-07-29T00:11:27;6.57;;;5.97;;
16460;SDS011;8341;42.048;24.650;2022-07-29T00:13:54;6.18;;;5.57;;
16460;SDS011;8341;42.048;24.650;2022-07-29T00:16:21;6.75;;;5.97;;
16460;SDS011;8341;42.048;24.650;2022-07-29T00:18:49;6.30;;;5.70;;
16460;SDS011;8341;42.048;24.650;2022-07-29T00:21:16;7.82;;;5.50;;
16460;SDS011;8341;42.048;24.650;2022-07-29T00:23:43;7.90;;;5.78;;
16460;SDS011;8341;42.048;24.650;2022-07-29T00:26:09;6.15;;;5.60;;
16460;SDS011;8341;42.048;24.650;2022-07-29T00:28:36;7.05;;;5.40;;
16460;SDS011;8341;42.048;24.650;2022-07-29T00:31:03;6.60;;;5.97;;
16460;SDS011;8341;42.048;24.650;2022-07-29T00:33:30;5.78;;;5.28;;
16460;SDS011;8341;42.048;24.650;2022-07-29T00:35:58;6.75;;;5.72;;
16460;SDS011;8341;42.048;24.650;2022-07-29T00:38:24;6.53;;;5.88;;
16460;SDS011;8341;42.048;24.650;2022-07-29T00:40:51;6.30;;;5.80;;
16460;SDS011;8341;42.048;24.650;2022-07-29T00:43:17;6.00;;;5.40;;
16460;SDS011;8341;42.048;24.650;2022-07-29T00:45:44;5.15;;;4.75;;
16460;SDS011;8341;42.048;24.650;2022-07-29T00:48:11;5.65;;;5.15;;
16460;SDS011;8341;42.048;24.650;2022-07-29T00:50:38;6.50;;;5.90;;
16460;SDS011;8341;42.048;24.650;2022-07-29T00:53:06;5.95;;;5.50;;
16460;SDS011;8341;42.048;24.650;2022-07-29T00:55:34;6.22;;;5.50;;
16460;SDS011;8341;42.048;24.650;2022-07-29T00:58:01;5.85;;;5.35;;
16460;SDS011;8341;42.048;24.650;2022-07-29T01:00:28;6.93;;;5.28;;
16460;SDS011;8341;42.048;24.650;2022-07-29T01:02:55;6.20;;;5.60;;
16460;SDS011;8341;42.048;24.650;2022-07-29T01:05:23;6.22;;;5.63;;
16460;SDS011;8341;42.048;24.650;2022-07-29T01:07:52;5.82;;;5.32;;
16460;SDS011;8341;42.048;24.650;2022-07-29T01:10:22;6.55;;;5.95;;
16460;SDS011;8341;42.048;24.650;2022-07-29T01:12:50;6.80;;;5.63;;
16460;SDS011;8341;42.048;24.650;2022-07-29T01:15:18;6.53;;;5.80;;
16460;SDS011;8341;42.048;24.650;2022-07-29T01:17:52;6.13;;;5.57;;
16460;SDS011;8341;42.048;24.650;2022-07-29T01:20:26;6.50;;;5.90;;
16460;SDS011;8341;42.048;24.650;2022-07-29T01:23:14;5.88;;;5.40;;
16460;SDS011;8341;42.048;24.650;2022-07-29T01:25:59;5.97;;;5.53;;
16460;SDS011;8341;42.048;24.650;2022-07-29T01:28:49;6.32;;;5.32;;
16460;SDS011;8341;42.048;24.650;2022-07-29T01:31:24;6.25;;;5.70;;
16460;SDS011;8341;42.048;24.650;2022-07-29T01:33:58;5.85;;;5.35;;
16460;SDS011;8341;42.048;24.650;2022-07-29T01:36:31;5.80;;;5.30;;
16460;SDS011;8341;42.048;24.650;2022-07-29T01:39:03;8.55;;;6.13;;
16460;SDS011;8341;42.048;24.650;2022-07-29T01:41:35;9.30;;;6.35;;
16460;SDS011;8341;42.048;24.650;2022-07-29T01:44:10;6.10;;;5.60;;
16460;SDS011;8341;42.048;24.650;2022-07-29T01:46:41;7.40;;;6.10;;
16460;SDS011;8341;42.048;24.650;2022-07-29T01:49:16;6.25;;;5.75;;
16460;SDS011;8341;42.048;24.650;2022-07-29T01:51:47;6.82;;;6.13;;
16460;SDS011;8341;42.048;24.650;2022-07-29T01:54:18;10.88;;;6.25;;
16460;SDS011;8341;42.048;24.650;2022-07-29T01:56:51;6.70;;;6.03;;
16460;SDS011;8341;42.048;24.650;2022-07-29T01:59:21;7.00;;;6.30;;
16460;SDS011;8341;42.048;24.650;2022-07-29T02:01:49;7.35;;;6.18;;
16460;SDS011;8341;42.048;24.650;2022-07-29T02:04:20;7.25;;;6.65;;
16460;SDS011;8341;42.048;24.650;2022-07-29T02:06:48;6.65;;;5.95;;
16460;SDS011;8341;42.048;24.650;2022-07-29T02:09:17;6.88;;;6.28;;
16460;SDS011;8341;42.048;24.650;2022-07-29T02:11:47;7.28;;;6.65;;
16460;SDS011;8341;42.048;24.650;2022-07-29T02:14:17;6.88;;;6.28;;
16460;SDS011;8341;42.048;24.650;2022-07-29T02:16:46;9.10;;;8.05;;
16460;SDS011;8341;42.048;24.650;2022-07-29T02:19:14;12.80;;;11.48;;
16460;SDS011;8341;42.048;24.650;2022-07-29T02:21:44;10.88;;;9.88;;
16460;SDS011;8341;42.048;24.650;2022-07-29T02:24:12;11.10;;;10.02;;
16460;SDS011;8341;42.048;24.650;2022-07-29T02:26:42;7.97;;;7.18;;
16460;SDS011;8341;42.048;24.650;2022-07-29T02:29:11;11.35;;;10.25;;
16460;SDS011;8341;42.048;24.650;2022-07-29T02:31:41;7.00;;;6.30;;
16460;SDS011;8341;42.048;24.650;2022-07-29T02:34:13;19.23;;;17.23;;
16460;SDS011;8341;42.048;24.650;2022-07-29T02:36:43;8.27;;;7.47;;
16460;SDS011;8341;42.048;24.650;2022-07-29T02:39:11;15.18;;;13.55;;
16460;SDS011;8341;42.048;24.650;2022-07-29T02:41:41;18.85;;;16.85;;
16460;SDS011;8341;42.048;24.650;2022-07-29T02:44:10;14.60;;;13.07;;
16460;SDS011;8341;42.048;24.650;2022-07-29T02:46:41;13.80;;;12.38;;
16460;SDS011;8341;42.048;24.650;2022-07-29T02:49:15;11.68;;;8.75;;
16460;SDS011;8341;42.048;24.650;2022-07-29T02:51:45;7.97;;;7.28;;
16460;SDS011;8341;42.048;24.650;2022-07-29T02:54:19;9.65;;;8.57;;
16460;SDS011;8341;42.048;24.650;2022-07-29T02:56:57;11.60;;;10.40;;
16460;SDS011;8341;42.048;24.650;2022-07-29T02:59:27;13.15;;;10.75;;
16460;SDS011;8341;42.048;24.650;2022-07-29T03:01:57;8.48;;;7.57;;
16460;SDS011;8341;42.048;24.650;2022-07-29T03:04:27;7.90;;;7.10;;
16460;SDS011;8341;42.048;24.650;2022-07-29T03:06:58;10.15;;;9.15;;
16460;SDS011;8341;42.048;24.650;2022-07-29T03:09:26;9.40;;;8.50;;
16460;SDS011;8341;42.048;24.650;2022-07-29T03:11:54;9.98;;;8.38;;
16460;SDS011;8341;42.048;24.650;2022-07-29T03:14:23;9.35;;;7.40;;
16460;SDS011;8341;42.048;24.650;2022-07-29T03:16:50;8.48;;;7.75;;
16460;SDS011;8341;42.048;24.650;2022-07-29T03:19:18;8.63;;;7.82;;
16460;SDS011;8341;42.048;24.650;2022-07-29T03:21:48;9.68;;;8.15;;
16460;SDS011;8341;42.048;24.650;2022-07-29T03:24:25;9.77;;;7.75;;
16460;SDS011;8341;42.048;24.650;2022-07-29T03:26:55;9.73;;;8.60;;
16460;SDS011;8341;42.048;24.650;2022-07-29T03:29:22;19.13;;;13.85;;
16460;SDS011;8341;42.048;24.650;2022-07-29T03:31:50;15.02;;;10.40;;
16460;SDS011;8341;42.048;24.650;2022-07-29T03:34:17;9.68;;;8.57;;
16460;SDS011;8341;42.048;24.650;2022-07-29T03:36:43;10.48;;;7.90;;
16460;SDS011;8341;42.048;24.650;2022-07-29T03:39:12;9.43;;;8.43;;
16460;SDS011;8341;42.048;24.650;2022-07-29T03:41:43;9.93;;;8.93;;
16460;SDS011;8341;42.048;24.650;2022-07-29T03:44:12;8.68;;;7.82;;
16460;SDS011;8341;42.048;24.650;2022-07-29T03:46:41;9.50;;;8.50;;
16460;SDS011;8341;42.048;24.650;2022-07-29T03:49:10;8.15;;;7.35;;
16460;SDS011;8341;42.048;24.650;2022-07-29T03:51:38;8.52;;;7.63;;
16460;SDS011;8341;42.048;24.650;2022-07-29T03:54:05;8.95;;;7.47;;
16460;SDS011;8341;42.048;24.650;2022-07-29T03:56:34;8.80;;;7.70;;
16460;SDS011;8341;42.048;24.650;2022-07-29T03:59:06;8.40;;;7.70;;
16460;SDS011;8341;42.048;24.650;2022-07-29T04:01:33;8.52;;;7.72;;
16460;SDS011;8341;42.048;24.650;2022-07-29T04:04:01;8.25;;;7.50;;
16460;SDS011;8341;42.048;24.650;2022-07-29T04:06:28;8.43;;;7.70;;
16460;SDS011;8341;42.048;24.650;2022-07-29T04:09:03;8.48;;;7.55;;
16460;SDS011;8341;42.048;24.650;2022-07-29T04:11:29;8.20;;;7.40;;
16460;SDS011;8341;42.048;24.650;2022-07-29T04:13:58;8.13;;;7.43;;
16460;SDS011;8341;42.048;24.650;2022-07-29T04:16:24;8.48;;;7.55;;
16460;SDS011;8341;42.048;24.650;2022-07-29T04:18:51;8.43;;;7.65;;
16460;SDS011;8341;42.048;24.650;2022-07-29T04:21:18;8.00;;;7.15;;
16460;SDS011;8341;42.048;24.650;2022-07-29T04:23:45;8.18;;;7.38;;
16460;SDS011;8341;42.048;24.650;2022-07-29T04:26:14;9.48;;;7.55;;
16460;SDS011;8341;42.048;24.650;2022-07-29T04:28:41;8.38;;;7.53;;
16460;SDS011;8341;42.048;24.650;2022-07-29T04:31:09;7.35;;;6.65;;
16460;SDS011;8341;42.048;24.650;2022-07-29T04:33:37;9.05;;;6.85;;
16460;SDS011;8341;42.048;24.650;2022-07-29T04:36:04;7.05;;;6.30;;
16460;SDS011;8341;42.048;24.650;2022-07-29T04:38:31;6.55;;;5.78;;
16460;SDS011;8341;42.048;24.650;2022-07-29T04:40:58;8.25;;;6.65;;
16460;SDS011;8341;42.048;24.650;2022-07-29T04:43:24;6.57;;;5.97;;
16460;SDS011;8341;42.048;24.650;2022-07-29T04:45:51;6.47;;;5.97;;
16460;SDS011;8341;42.048;24.650;2022-07-29T04:48:20;10.73;;;6.47;;
16460;SDS011;8341;42.048;24.650;2022-07-29T04:50:46;6.15;;;5.65;;
16460;SDS011;8341;42.048;24.650;2022-07-29T04:53:13;6.22;;;5.65;;
16460;SDS011;8341;42.048;24.650;2022-07-29T04:55:40;7.28;;;5.68;;
16460;SDS011;8341;42.048;24.650;2022-07-29T04:58:07;5.97;;;5.35;;
16460;SDS011;8341;42.048;24.650;2022-07-29T05:00:34;5.28;;;4.20;;
16460;SDS011;8341;42.048;24.650;2022-07-29T05:03:01;5.10;;;4.60;;
16460;SDS011;8341;42.048;24.650;2022-07-29T05:05:29;5.32;;;4.55;;
16460;SDS011;8341;42.048;24.650;2022-07-29T05:07:57;4.55;;;4.25;;
16460;SDS011;8341;42.048;24.650;2022-07-29T05:10:24;6.35;;;3.92;;
16460;SDS011;8341;42.048;24.650;2022-07-29T05:12:51;4.32;;;3.85;;
16460;SDS011;8341;42.048;24.650;2022-07-29T05:15:18;4.43;;;4.03;;
16460;SDS011;8341;42.048;24.650;2022-07-29T05:17:45;4.90;;;4.50;;
16460;SDS011;8341;42.048;24.650;2022-07-29T05:20:12;4.93;;;4.53;;
16460;SDS011;8341;42.048;24.650;2022-07-29T05:22:40;4.90;;;4.25;;
16460;SDS011;8341;42.048;24.650;2022-07-29T05:25:07;4.93;;;4.53;;
16460;SDS011;8341;42.048;24.650;2022-07-29T05:27:35;5.53;;;4.30;;
16460;SDS011;8341;42.048;24.650;2022-07-29T05:30:02;5.15;;;4.68;;
16460;SDS011;8341;42.048;24.650;2022-07-29T05:32:29;4.93;;;4.55;;
16460;SDS011;8341;42.048;24.650;2022-07-29T05:34:56;4.88;;;4.43;;
16460;SDS011;8341;42.048;24.650;2022-07-29T05:37:23;5.30;;;4.80;;
16460;SDS011;8341;42.048;24.650;2022-07-29T05:39:51;5.68;;;5.28;;
16460;SDS011;8341;42.048;24.650;2022-07-29T05:42:18;6.45;;;5.90;;
16460;SDS011;8341;42.048;24.650;2022-07-29T05:44:45;8.45;;;6.70;;
16460;SDS011;8341;42.048;24.650;2022-07-29T05:47:12;8.48;;;7.57;;
16460;SDS011;8341;42.048;24.650;2022-07-29T05:49:39;11.27;;;7.53;;
16460;SDS011;8341;42.048;24.650;2022-07-29T05:52:06;8.80;;;7.90;;
16460;SDS011;8341;42.048;24.650;2022-07-29T05:54:33;9.27;;;8.30;;
16460;SDS011;8341;42.048;24.650;2022-07-29T05:57:02;9.48;;;8.57;;
16460;SDS011;8341;42.048;24.650;2022-07-29T05:59:30;10.75;;;9.57;;
16460;SDS011;8341;42.048;24.650;2022-07-29T06:01:57;11.35;;;10.25;;
16460;SDS011;8341;42.048;24.650;2022-07-29T06:04:24;12.00;;;10.88;;
16460;SDS011;8341;42.048;24.650;2022-07-29T06:06:51;13.23;;;11.48;;
16460;SDS011;8341;42.048;24.650;2022-07-29T06:09:17;12.48;;;11.27;;
16460;SDS011;8341;42.048;24.650;2022-07-29T06:11:45;13.05;;;11.75;;
16460;SDS011;8341;42.048;24.650;2022-07-29T06:14:13;12.82;;;11.52;;
16460;SDS011;8341;42.048;24.650;2022-07-29T06:16:40;13.32;;;11.52;;
16460;SDS011;8341;42.048;24.650;2022-07-29T06:19:07;12.80;;;11.50;;
16460;SDS011;8341;42.048;24.650;2022-07-29T06:21:34;12.32;;;11.23;;
16460;SDS011;8341;42.048;24.650;2022-07-29T06:24:01;14.35;;;12.85;;
16460;SDS011;8341;42.048;24.650;2022-07-29T06:26:28;13.63;;;12.23;;
16460;SDS011;8341;42.048;24.650;2022-07-29T06:28:55;13.27;;;11.10;;
16460;SDS011;8341;42.048;24.650;2022-07-29T06:31:23;12.75;;;10.52;;
16460;SDS011;8341;42.048;24.650;2022-07-29T06:33:50;15.18;;;12.13;;
16460;SDS011;8341;42.048;24.650;2022-07-29T06:36:16;12.48;;;11.27;;
16460;SDS011;8341;42.048;24.650;2022-07-29T06:38:43;12.95;;;11.40;;
16460;SDS011;8341;42.048;24.650;2022-07-29T06:41:10;14.93;;;11.85;;
16460;SDS011;8341;42.048;24.650;2022-07-29T06:43:38;14.00;;;11.52;;
16460;SDS011;8341;42.048;24.650;2022-07-29T06:46:07;12.38;;;11.18;;
16460;SDS011;8341;42.048;24.650;2022-07-29T06:48:37;13.10;;;11.90;;
16460;SDS011;8341;42.048;24.650;2022-07-29T06:51:05;16.50;;;11.48;;
16460;SDS011;8341;42.048;24.650;2022-07-29T06:53:32;12.00;;;10.98;;
16460;SDS011;8341;42.048;24.650;2022-07-29T06:56:00;11.88;;;10.77;;
16460;SDS011;8341;42.048;24.650;2022-07-29T06:58:28;13.00;;;11.70;;
16460;SDS011;8341;42.048;24.650;2022-07-29T07:00:56;14.10;;;12.75;;
16460;SDS011;8341;42.048;24.650;2022-07-29T07:03:24;13.10;;;11.90;;
16460;SDS011;8341;42.048;24.650;2022-07-29T07:05:53;13.02;;;11.70;;
16460;SDS011;8341;42.048;24.650;2022-07-29T07:08:20;13.27;;;11.98;;
16460;SDS011;8341;42.048;24.650;2022-07-29T07:10:48;12.43;;;11.27;;
16460;SDS011;8341;42.048;24.650;2022-07-29T07:13:15;12.43;;;11.23;;
16460;SDS011;8341;42.048;24.650;2022-07-29T07:15:43;12.98;;;11.07;;
16460;SDS011;8341;42.048;24.650;2022-07-29T07:18:10;12.93;;;11.57;;
16460;SDS011;8341;42.048;24.650;2022-07-29T07:20:37;12.18;;;10.90;;
16460;SDS011;8341;42.048;24.650;2022-07-29T07:23:05;11.85;;;10.75;;
16460;SDS011;8341;42.048;24.650;2022-07-29T07:25:32;11.55;;;10.48;;
16460;SDS011;8341;42.048;24.650;2022-07-29T07:28:00;12.40;;;11.05;;
16460;SDS011;8341;42.048;24.650;2022-07-29T07:30:27;12.32;;;11.07;;
16460;SDS011;8341;42.048;24.650;2022-07-29T07:32:54;14.25;;;10.90;;
16460;SDS011;8341;42.048;24.650;2022-07-29T07:35:21;11.40;;;10.35;;
16460;SDS011;8341;42.048;24.650;2022-07-29T07:37:48;12.27;;;10.50;;
16460;SDS011;8341;42.048;24.650;2022-07-29T07:40:16;12.18;;;10.07;;
16460;SDS011;8341;42.048;24.650;2022-07-29T07:42:43;13.10;;;10.63;;
16460;SDS011;8341;42.048;24.650;2022-07-29T07:45:10;11.93;;;10.82;;
16460;SDS011;8341;42.048;24.650;2022-07-29T07:47:38;11.43;;;10.30;;
16460;SDS011;8341;42.048;24.650;2022-07-29T07:50:05;12.98;;;10.80;;
16460;SDS011;8341;42.048;24.650;2022-07-29T07:52:34;10.98;;;9.90;;
16460;SDS011;8341;42.048;24.650;2022-07-29T07:55:11;11.68;;;10.52;;
16460;SDS011;8341;42.048;24.650;2022-07-29T07:57:40;11.65;;;10.50;;
16460;SDS011;8341;42.048;24.650;2022-07-29T08:00:07;10.75;;;9.70;;
16460;SDS011;8341;42.048;24.650;2022-07-29T08:02:34;10.27;;;9.38;;
16460;SDS011;8341;42.048;24.650;2022-07-29T08:05:01;11.27;;;9.95;;
16460;SDS011;8341;42.048;24.650;2022-07-29T08:07:28;11.07;;;9.55;;
16460;SDS011;8341;42.048;24.650;2022-07-29T08:09:55;11.15;;;8.77;;
16460;SDS011;8341;42.048;24.650;2022-07-29T08:12:22;10.00;;;9.05;;
16460;SDS011;8341;42.048;24.650;2022-07-29T08:14:50;10.00;;;9.10;;
16460;SDS011;8341;42.048;24.650;2022-07-29T08:17:17;9.93;;;8.95;;
16460;SDS011;8341;42.048;24.650;2022-07-29T08:19:43;10.05;;;9.15;;
16460;SDS011;8341;42.048;24.650;2022-07-29T08:22:10;9.90;;;8.90;;
16460;SDS011;8341;42.048;24.650;2022-07-29T08:24:37;9.75;;;8.75;;
16460;SDS011;8341;42.048;24.650;2022-07-29T08:27:12;10.43;;;8.25;;
16460;SDS011;8341;42.048;24.650;2022-07-29T08:29:40;8.68;;;7.88;;
16460;SDS011;8341;42.048;24.650;2022-07-29T08:32:08;8.73;;;7.93;;
16460;SDS011;8341;42.048;24.650;2022-07-29T08:34:34;8.32;;;7.63;;
16460;SDS011;8341;42.048;24.650;2022-07-29T08:37:01;10.85;;;8.13;;
16460;SDS011;8341;42.048;24.650;2022-07-29T08:39:28;9.07;;;8.15;;
16460;SDS011;8341;42.048;24.650;2022-07-29T08:41:55;9.45;;;7.97;;
16460;SDS011;8341;42.048;24.650;2022-07-29T08:44:22;8.27;;;7.32;;
16460;SDS011;8341;42.048;24.650;2022-07-29T08:46:49;8.52;;;7.47;;
16460;SDS011;8341;42.048;24.650;2022-07-29T08:49:17;8.73;;;6.93;;
16460;SDS011;8341;42.048;24.650;2022-07-29T08:51:44;7.53;;;6.70;;
16460;SDS011;8341;42.048;24.650;2022-07-29T08:54:11;8.48;;;7.60;;
16460;SDS011;8341;42.048;24.650;2022-07-29T08:56:44;7.38;;;6.63;;
16460;SDS011;8341;42.048;24.650;2022-07-29T08:59:15;8.38;;;6.65;;
16460;SDS011;8341;42.048;24.650;2022-07-29T09:01:44;8.20;;;6.93;;
16460;SDS011;8341;42.048;24.650;2022-07-29T09:04:12;9.35;;;6.63;;
16460;SDS011;8341;42.048;24.650;2022-07-29T09:06:43;9.60;;;6.75;;
16460;SDS011;8341;42.048;24.650;2022-07-29T09:09:13;8.15;;;6.72;;
16460;SDS011;8341;42.048;24.650;2022-07-29T09:11:41;6.90;;;6.38;;
16460;SDS011;8341;42.048;24.650;2022-07-29T09:14:08;8.13;;;6.53;;
16460;SDS011;8341;42.048;24.650;2022-07-29T09:16:47;10.32;;;6.43;;
16460;SDS011;8341;42.048;24.650;2022-07-29T09:19:19;9.40;;;5.63;;
16460;SDS011;8341;42.048;24.650;2022-07-29T09:21:49;6.82;;;5.00;;
16460;SDS011;8341;42.048;24.650;2022-07-29T09:24:36;6.10;;;5.35;;
16460;SDS011;8341;42.048;24.650;2022-07-29T09:27:12;7.25;;;5.15;;
16460;SDS011;8341;42.048;24.650;2022-07-29T09:29:46;7.50;;;5.45;;
16460;SDS011;8341;42.048;24.650;2022-07-29T09:32:13;5.32;;;4.75;;
16460;SDS011;8341;42.048;24.650;2022-07-29T09:34:40;4.05;;;3.75;;
16460;SDS011;8341;42.048;24.650;2022-07-29T09:37:08;5.50;;;4.15;;
16460;SDS011;8341;42.048;24.650;2022-07-29T09:39:37;5.30;;;4.10;;
16460;SDS011;8341;42.048;24.650;2022-07-29T09:42:10;5.57;;;3.65;;
16460;SDS011;8341;42.048;24.650;2022-07-29T09:44:41;4.78;;;3.85;;
16460;SDS011;8341;42.048;24.650;2022-07-29T09:47:09;4.20;;;3.90;;
16460;SDS011;8341;42.048;24.650;2022-07-29T09:49:49;4.35;;;3.92;;
16460;SDS011;8341;42.048;24.650;2022-07-29T09:52:19;4.28;;;3.88;;
16460;SDS011;8341;42.048;24.650;2022-07-29T09:54:46;4.05;;;3.67;;
16460;SDS011;8341;42.048;24.650;2022-07-29T09:57:23;4.32;;;3.95;;
16460;SDS011;8341;42.048;24.650;2022-07-29T09:59:58;4.75;;;3.38;;
16460;SDS011;8341;42.048;24.650;2022-07-29T10:02:30;4.68;;;4.03;;
16460;SDS011;8341;42.048;24.650;2022-07-29T10:04:59;3.45;;;3.15;;
16460;SDS011;8341;42.048;24.650;2022-07-29T10:07:27;4.38;;;3.97;;
16460;SDS011;8341;42.048;24.650;2022-07-29T10:10:09;4.05;;;3.13;;
16460;SDS011;8341;42.048;24.650;2022-07-29T10:12:47;6.18;;;3.50;;
16460;SDS011;8341;42.048;24.650;2022-07-29T10:15:15;4.30;;;3.80;;
16460;SDS011;8341;42.048;24.650;2022-07-29T10:17:42;3.75;;;3.50;;
16460;SDS011;8341;42.048;24.650;2022-07-29T10:20:10;3.42;;;3.22;;
16460;SDS011;8341;42.048;24.650;2022-07-29T10:22:38;3.50;;;3.20;;
16460;SDS011;8341;42.048;24.650;2022-07-29T10:25:06;2.95;;;2.78;;
16460;SDS011;8341;42.048;24.650;2022-07-29T10:27:35;3.35;;;3.03;;
16460;SDS011;8341;42.048;24.650;2022-07-29T10:30:02;3.50;;;3.20;;
16460;SDS011;8341;42.048;24.650;2022-07-29T10:32:34;4.13;;;2.92;;
16460;SDS011;8341;42.048;24.650;2022-07-29T10:35:21;3.47;;;3.17;;
16460;SDS011;8341;42.048;24.650;2022-07-29T10:38:10;3.25;;;3.05;;
16460;SDS011;8341;42.048;24.650;2022-07-29T10:40:54;3.00;;;2.70;;
16460;SDS011;8341;42.048;24.650;2022-07-29T10:43:47;3.28;;;3.05;;
16460;SDS011;8341;42.048;24.650;2022-07-29T10:46:15;2.85;;;2.65;;
16460;SDS011;8341;42.048;24.650;2022-07-29T10:49:10;3.08;;;2.88;;
16460;SDS011;8341;42.048;24.650;2022-07-29T10:51:55;3.25;;;3.03;;
16460;SDS011;8341;42.048;24.650;2022-07-29T10:54:38;3.38;;;3.08;;
16460;SDS011;8341;42.048;24.650;2022-07-29T10:57:11;3.65;;;2.80;;
16460;SDS011;8341;42.048;24.650;2022-07-29T10:59:39;3.40;;;3.03;;
16460;SDS011;8341;42.048;24.650;2022-07-29T11:05:07;3.20;;;2.90;;
16460;SDS011;8341;42.048;24.650;2022-07-29T11:07:35;3.28;;;2.65;;
16460;SDS011;8341;42.048;24.650;2022-07-29T11:10:21;2.83;;;2.70;;
16460;SDS011;8341;42.048;24.650;2022-07-29T11:12:49;3.55;;;3.10;;
16460;SDS011;8341;42.048;24.650;2022-07-29T11:15:17;3.30;;;3.10;;
16460;SDS011;8341;42.048;24.650;2022-07-29T11:20:35;3.22;;;2.90;;
16460;SDS011;8341;42.048;24.650;2022-07-29T11:28:54;3.83;;;3.33;;
16460;SDS011;8341;42.048;24.650;2022-07-29T11:31:34;3.15;;;2.85;;
16460;SDS011;8341;42.048;24.650;2022-07-29T11:40:09;3.60;;;3.28;;
16460;SDS011;8341;42.048;24.650;2022-07-29T11:42:42;4.00;;;3.10;;
16460;SDS011;8341;42.048;24.650;2022-07-29T11:45:10;3.60;;;3.03;;
16460;SDS011;8341;42.048;24.650;2022-07-29T11:47:46;3.10;;;2.90;;
16460;SDS011;8341;42.048;24.650;2022-07-29T11:50:15;3.33;;;3.10;;
16460;SDS011;8341;42.048;24.650;2022-07-29T11:52:44;3.40;;;2.70;;
16460;SDS011;8341;42.048;24.650;2022-07-29T11:55:13;3.30;;;3.10;;
16460;SDS011;8341;42.048;24.650;2022-07-29T11:57:46;3.88;;;3.38;;
16460;SDS011;8341;42.048;24.650;2022-07-29T12:00:21;3.50;;;3.20;;
16460;SDS011;8341;42.048;24.650;2022-07-29T12:02:55;3.50;;;3.20;;
16460;SDS011;8341;42.048;24.650;2022-07-29T12:05:34;3.35;;;3.08;;
16460;SDS011;8341;42.048;24.650;2022-07-29T12:08:12;3.35;;;3.15;;
16460;SDS011;8341;42.048;24.650;2022-07-29T12:10:41;3.20;;;2.95;;
16460;SDS011;8341;42.048;24.650;2022-07-29T12:13:10;3.50;;;3.30;;
16460;SDS011;8341;42.048;24.650;2022-07-29T12:15:38;3.33;;;2.72;;
16460;SDS011;8341;42.048;24.650;2022-07-29T12:18:14;3.20;;;3.00;;
16460;SDS011;8341;42.048;24.650;2022-07-29T12:20:43;3.30;;;3.10;;
16460;SDS011;8341;42.048;24.650;2022-07-29T12:23:10;3.20;;;3.00;;
16460;SDS011;8341;42.048;24.650;2022-07-29T12:25:38;126.43;;;10.68;;
16460;SDS011;8341;42.048;24.650;2022-07-29T12:28:06;3.05;;;2.85;;
16460;SDS011;8341;42.048;24.650;2022-07-29T12:30:37;3.28;;;2.97;;
16460;SDS011;8341;42.048;24.650;2022-07-29T12:33:13;3.60;;;3.30;;
16460;SDS011;8341;42.048;24.650;2022-07-29T12:35:42;3.40;;;3.20;;
16460;SDS011;8341;42.048;24.650;2022-07-29T12:38:10;3.10;;;2.90;;
16460;SDS011;8341;42.048;24.650;2022-07-29T12:40:38;14.70;;;3.80;;
16460;SDS011;8341;42.048;24.650;2022-07-29T12:43:06;3.20;;;3.00;;
16460;SDS011;8341;42.048;24.650;2022-07-29T12:45:39;3.25;;;2.97;;
16460;SDS011;8341;42.048;24.650;2022-07-29T12:48:07;4.60;;;2.92;;
16460;SDS011;8341;42.048;24.650;2022-07-29T12:50:34;5.68;;;4.90;;
16460;SDS011;8341;42.048;24.650;2022-07-29T12:53:08;3.05;;;2.85;;
16460;SDS011;8341;42.048;24.650;2022-07-29T12:55:40;4.35;;;4.07;;
16460;SDS011;8341;42.048;24.650;2022-07-29T12:58:08;3.15;;;2.85;;
16460;SDS011;8341;42.048;24.650;2022-07-29T13:00:39;4.35;;;2.88;;
16460;SDS011;8341;42.048;24.650;2022-07-29T13:03:05;3.25;;;3.03;;
16460;SDS011;8341;42.048;24.650;2022-07-29T13:05:39;3.72;;;3.22;;
16460;SDS011;8341;42.048;24.650;2022-07-29T13:08:10;3.25;;;3.05;;
16460;SDS011;8341;42.048;24.650;2022-07-29T13:10:38;3.88;;;3.58;;
16460;SDS011;8341;42.048;24.650;2022-07-29T13:13:06;4.22;;;3.10;;
16460;SDS011;8341;42.048;24.650;2022-07-29T13:15:35;3.50;;;3.20;;
16460;SDS011;8341;42.048;24.650;2022-07-29T13:18:04;3.15;;;2.95;;
16460;SDS011;8341;42.048;24.650;2022-07-29T13:20:31;3.30;;;3.10;;
16460;SDS011;8341;42.048;24.650;2022-07-29T13:22:58;3.67;;;3.38;;
16460;SDS011;8341;42.048;24.650;2022-07-29T13:25:27;4.13;;;3.72;;
16460;SDS011;8341;42.048;24.650;2022-07-29T13:27:54;3.95;;;3.50;;
16460;SDS011;8341;42.048;24.650;2022-07-29T13:30:22;3.33;;;2.90;;
16460;SDS011;8341;42.048;24.650;2022-07-29T13:32:49;5.78;;;3.47;;
16460;SDS011;8341;42.048;24.650;2022-07-29T13:35:19;3.38;;;3.05;;
16460;SDS011;8341;42.048;24.650;2022-07-29T13:37:46;3.40;;;3.10;;
16460;SDS011;8341;42.048;24.650;2022-07-29T13:40:13;5.60;;;3.45;;
16460;SDS011;8341;42.048;24.650;2022-07-29T13:42:40;3.20;;;2.90;;
16460;SDS011;8341;42.048;24.650;2022-07-29T13:45:08;5.03;;;3.22;;
16460;SDS011;8341;42.048;24.650;2022-07-29T13:47:36;3.63;;;3.33;;
16460;SDS011;8341;42.048;24.650;2022-07-29T13:50:03;4.10;;;3.40;;
16460;SDS011;8341;42.048;24.650;2022-07-29T13:52:32;3.35;;;3.08;;
16460;SDS011;8341;42.048;24.650;2022-07-29T13:55:00;4.60;;;3.50;;
16460;SDS011;8341;42.048;24.650;2022-07-29T13:57:27;3.50;;;3.30;;
16460;SDS011;8341;42.048;24.650;2022-07-29T13:59:55;4.22;;;3.75;;
16460;SDS011;8341;42.048;24.650;2022-07-29T14:02:22;4.15;;;3.85;;
16460;SDS011;8341;42.048;24.650;2022-07-29T14:04:49;4.65;;;3.50;;
16460;SDS011;8341;42.048;24.650;2022-07-29T14:07:16;4.22;;;3.83;;
16460;SDS011;8341;42.048;24.650;2022-07-29T14:09:44;4.07;;;3.70;;
16460;SDS011;8341;42.048;24.650;2022-07-29T14:12:11;4.20;;;3.88;;
16460;SDS011;8341;42.048;24.650;2022-07-29T14:14:38;5.68;;;3.80;;
16460;SDS011;8341;42.048;24.650;2022-07-29T14:17:05;4.60;;;3.92;;
16460;SDS011;8341;42.048;24.650;2022-07-29T14:19:32;4.40;;;4.10;;
16460;SDS011;8341;42.048;24.650;2022-07-29T14:22:01;4.13;;;3.83;;
16460;SDS011;8341;42.048;24.650;2022-07-29T14:24:28;4.35;;;4.05;;
16460;SDS011;8341;42.048;24.650;2022-07-29T14:26:57;5.40;;;4.30;;
16460;SDS011;8341;42.048;24.650;2022-07-29T14:29:24;4.25;;;3.85;;
16460;SDS011;8341;42.048;24.650;2022-07-29T14:31:51;3.90;;;3.70;;
16460;SDS011;8341;42.048;24.650;2022-07-29T14:34:18;4.47;;;4.18;;
16460;SDS011;8341;42.048;24.650;2022-07-29T14:36:45;4.53;;;4.22;;
16460;SDS011;8341;42.048;24.650;2022-07-29T14:39:11;4.07;;;3.83;;
16460;SDS011;8341;42.048;24.650;2022-07-29T14:41:40;4.35;;;4.03;;
16460;SDS011;8341;42.048;24.650;2022-07-29T14:44:09;4.43;;;3.92;;
16460;SDS011;8341;42.048;24.650;2022-07-29T14:46:35;4.28;;;3.78;;
16460;SDS011;8341;42.048;24.650;2022-07-29T14:49:02;4.30;;;3.97;;
16460;SDS011;8341;42.048;24.650;2022-07-29T14:51:29;4.65;;;3.67;;
16460;SDS011;8341;42.048;24.650;2022-07-29T14:53:56;7.18;;;4.18;;
16460;SDS011;8341;42.048;24.650;2022-07-29T14:56:23;4.30;;;4.00;;
16460;SDS011;8341;42.048;24.650;2022-07-29T14:58:49;4.78;;;3.30;;
16460;SDS011;8341;42.048;24.650;2022-07-29T15:01:18;4.35;;;3.88;;
16460;SDS011;8341;42.048;24.650;2022-07-29T15:03:44;4.40;;;3.90;;
16460;SDS011;8341;42.048;24.650;2022-07-29T15:06:11;5.75;;;4.00;;
16460;SDS011;8341;42.048;24.650;2022-07-29T15:08:38;4.05;;;3.70;;
16460;SDS011;8341;42.048;24.650;2022-07-29T15:11:05;4.35;;;4.00;;
16460;SDS011;8341;42.048;24.650;2022-07-29T15:13:32;4.82;;;3.83;;